首页
METAR-TAF:

METAR-TAF

机场 :

卡拉奇, 巴基斯坦

真纳国际机场

纬度: 24-54N, 经度: 067-08E, 海拔: 21米

当前天气观测

该预报发布于30分钟前的02:55 UTC
静风
温度 11°C
湿度 43%
气压 1018 hPa
能見度: 5000

METAR: OPKC 200255Z 00000KT 5000 HZ NSC 11/M01 Q1018 NOSIG

时间: 08:25 (03:25 UTC)

预报

该预报发布于2小时和55分钟前的00:30 UTC
预报有效从20日的 03点(UTC)到 20日的 12点(UTC)
风速5节,风向西转西南,有时为15节阵风
能見度: 7000
短暂存在
从 20日的 03点(UTC)到 20日的 06点(UTC)
风速5节,风向东北
能見度: 4000

TAF: OPKC 200030Z 2003/2012 25005G15KT 7000 NSC TEMPO 2003/2006 05005KT 4000 FU NSC

超过4000个机场的气象观测和天气预报(METAR&TAF报告)。

可查询的气象台以黄色和红色小点在地图上表示。

将鼠标移到小点上方,可查看气象台名称。

然后点击查看天气观测和预报。

如需切换地图:点击带黑十字的绿色按钮放大地图;点击带横线的绿色按钮缩小地图;或者点击绿色箭头查看邻近地区的地图。


METAR-TAF: